sensor_id;sensor_type;location;lat;lon;timestamp;temperature;humidity
8539;DHT22;4307;53.868;11.680;2023-08-17T00:02:01;19.40;99.90
8539;DHT22;4307;53.868;11.680;2023-08-17T00:04:28;19.40;99.90
8539;DHT22;4307;53.868;11.680;2023-08-17T00:06:55;19.40;99.90
8539;DHT22;4307;53.868;11.680;2023-08-17T00:09:21;19.40;99.90
8539;DHT22;4307;53.868;11.680;2023-08-17T00:11:49;19.30;99.90
8539;DHT22;4307;53.868;11.680;2023-08-17T00:14:16;19.40;99.90
8539;DHT22;4307;53.868;11.680;2023-08-17T00:16:43;19.30;99.90
8539;DHT22;4307;53.868;11.680;2023-08-17T00:19:11;19.30;99.90
8539;DHT22;4307;53.868;11.680;2023-08-17T00:21:37;19.30;99.90
8539;DHT22;4307;53.868;11.680;2023-08-17T00:24:07;19.30;99.90
8539;DHT22;4307;53.868;11.680;2023-08-17T00:26:34;19.30;99.90
8539;DHT22;4307;53.868;11.680;2023-08-17T00:29:01;19.30;99.90
8539;DHT22;4307;53.868;11.680;2023-08-17T00:31:28;19.30;99.90
8539;DHT22;4307;53.868;11.680;2023-08-17T00:33:54;19.20;99.90
8539;DHT22;4307;53.868;11.680;2023-08-17T00:36:23;19.20;99.90
8539;DHT22;4307;53.868;11.680;2023-08-17T00:38:50;19.30;99.90
8539;DHT22;4307;53.868;11.680;2023-08-17T00:41:16;19.20;99.90
8539;DHT22;4307;53.868;11.680;2023-08-17T00:43:43;19.20;99.90
8539;DHT22;4307;53.868;11.680;2023-08-17T00:46:10;19.20;99.90
8539;DHT22;4307;53.868;11.680;2023-08-17T00:48:37;19.20;99.90
8539;DHT22;4307;53.868;11.680;2023-08-17T00:51:05;19.10;99.90
8539;DHT22;4307;53.868;11.680;2023-08-17T00:53:33;19.10;99.90
8539;DHT22;4307;53.868;11.680;2023-08-17T00:56:01;19.00;99.90
8539;DHT22;4307;53.868;11.680;2023-08-17T00:58:28;19.00;99.90
8539;DHT22;4307;53.868;11.680;2023-08-17T01:00:55;19.00;99.90
8539;DHT22;4307;53.868;11.680;2023-08-17T01:03:22;18.90;99.90
8539;DHT22;4307;53.868;11.680;2023-08-17T01:05:49;18.90;99.90
8539;DHT22;4307;53.868;11.680;2023-08-17T01:08:16;18.90;99.90
8539;DHT22;4307;53.868;11.680;2023-08-17T01:10:50;18.80;99.90
8539;DHT22;4307;53.868;11.680;2023-08-17T01:13:23;18.80;99.90
8539;DHT22;4307;53.868;11.680;2023-08-17T01:15:54;18.70;99.90
8539;DHT22;4307;53.868;11.680;2023-08-17T01:18:23;18.70;99.90
8539;DHT22;4307;53.868;11.680;2023-08-17T01:20:53;18.70;99.90
8539;DHT22;4307;53.868;11.680;2023-08-17T01:23:21;18.60;99.90
8539;DHT22;4307;53.868;11.680;2023-08-17T01:25:48;18.60;99.90
8539;DHT22;4307;53.868;11.680;2023-08-17T01:28:14;18.60;99.90
8539;DHT22;4307;53.868;11.680;2023-08-17T01:30:46;18.50;99.90
8539;DHT22;4307;53.868;11.680;2023-08-17T01:33:20;18.50;99.90
8539;DHT22;4307;53.868;11.680;2023-08-17T01:35:51;18.40;99.90
8539;DHT22;4307;53.868;11.680;2023-08-17T01:38:22;18.40;99.90
8539;DHT22;4307;53.868;11.680;2023-08-17T01:40:50;18.30;99.90
8539;DHT22;4307;53.868;11.680;2023-08-17T01:43:19;18.30;99.90
8539;DHT22;4307;53.868;11.680;2023-08-17T01:45:46;18.20;99.90
8539;DHT22;4307;53.868;11.680;2023-08-17T01:48:13;18.20;99.90
8539;DHT22;4307;53.868;11.680;2023-08-17T01:50:40;18.20;99.90
8539;DHT22;4307;53.868;11.680;2023-08-17T01:53:06;18.20;99.90
8539;DHT22;4307;53.868;11.680;2023-08-17T01:55:35;18.20;99.90
8539;DHT22;4307;53.868;11.680;2023-08-17T01:58:02;18.20;99.90
8539;DHT22;4307;53.868;11.680;2023-08-17T02:00:28;18.10;99.90
8539;DHT22;4307;53.868;11.680;2023-08-17T02:02:55;18.10;99.90
8539;DHT22;4307;53.868;11.680;2023-08-17T02:05:21;18.10;99.90
8539;DHT22;4307;53.868;11.680;2023-08-17T02:07:48;18.10;99.90
8539;DHT22;4307;53.868;11.680;2023-08-17T02:10:15;18.00;99.90
8539;DHT22;4307;53.868;11.680;2023-08-17T02:12:43;18.00;99.90
8539;DHT22;4307;53.868;11.680;2023-08-17T02:15:10;18.00;99.90
8539;DHT22;4307;53.868;11.680;2023-08-17T02:17:36;18.00;99.90
8539;DHT22;4307;53.868;11.680;2023-08-17T02:20:04;18.00;99.90
8539;DHT22;4307;53.868;11.680;2023-08-17T02:22:31;18.00;99.90
8539;DHT22;4307;53.868;11.680;2023-08-17T02:24:58;17.90;99.90
8539;DHT22;4307;53.868;11.680;2023-08-17T02:27:25;17.90;99.90
8539;DHT22;4307;53.868;11.680;2023-08-17T02:29:53;17.90;99.90
8539;DHT22;4307;53.868;11.680;2023-08-17T02:32:20;17.90;99.90
8539;DHT22;4307;53.868;11.680;2023-08-17T02:34:46;17.90;99.90
8539;DHT22;4307;53.868;11.680;2023-08-17T02:37:13;17.90;99.90
8539;DHT22;4307;53.868;11.680;2023-08-17T02:39:40;17.80;99.90
8539;DHT22;4307;53.868;11.680;2023-08-17T02:42:07;17.80;99.90
8539;DHT22;4307;53.868;11.680;2023-08-17T02:44:33;17.80;99.90
8539;DHT22;4307;53.868;11.680;2023-08-17T02:47:02;17.80;99.90
8539;DHT22;4307;53.868;11.680;2023-08-17T02:49:28;17.70;99.90
8539;DHT22;4307;53.868;11.680;2023-08-17T02:51:55;17.70;99.90
8539;DHT22;4307;53.868;11.680;2023-08-17T02:54:21;17.70;99.90
8539;DHT22;4307;53.868;11.680;2023-08-17T02:56:48;17.70;99.90
8539;DHT22;4307;53.868;11.680;2023-08-17T02:59:15;17.70;99.90
8539;DHT22;4307;53.868;11.680;2023-08-17T03:01:41;17.70;99.90
8539;DHT22;4307;53.868;11.680;2023-08-17T03:04:10;17.60;99.90
8539;DHT22;4307;53.868;11.680;2023-08-17T03:06:36;17.60;99.90
8539;DHT22;4307;53.868;11.680;2023-08-17T03:09:04;17.50;99.90
8539;DHT22;4307;53.868;11.680;2023-08-17T03:11:30;17.50;99.90
8539;DHT22;4307;53.868;11.680;2023-08-17T03:13:57;17.40;99.90
8539;DHT22;4307;53.868;11.680;2023-08-17T03:16:25;17.40;99.90
8539;DHT22;4307;53.868;11.680;2023-08-17T03:18:52;17.40;99.90
8539;DHT22;4307;53.868;11.680;2023-08-17T03:21:20;17.40;99.90
8539;DHT22;4307;53.868;11.680;2023-08-17T03:23:47;17.40;99.90
8539;DHT22;4307;53.868;11.680;2023-08-17T03:26:13;17.40;99.90
8539;DHT22;4307;53.868;11.680;2023-08-17T03:28:40;17.40;99.90
8539;DHT22;4307;53.868;11.680;2023-08-17T03:31:07;17.50;99.90
8539;DHT22;4307;53.868;11.680;2023-08-17T03:33:35;17.50;99.90
8539;DHT22;4307;53.868;11.680;2023-08-17T03:36:02;17.50;99.90
8539;DHT22;4307;53.868;11.680;2023-08-17T03:38:30;17.50;99.90
8539;DHT22;4307;53.868;11.680;2023-08-17T03:40:56;17.50;99.90
8539;DHT22;4307;53.868;11.680;2023-08-17T03:43:23;17.50;99.90
8539;DHT22;4307;53.868;11.680;2023-08-17T03:45:51;17.60;99.90
8539;DHT22;4307;53.868;11.680;2023-08-17T03:48:18;17.60;99.90
8539;DHT22;4307;53.868;11.680;2023-08-17T03:50:47;17.60;99.90
8539;DHT22;4307;53.868;11.680;2023-08-17T03:53:14;17.70;99.90
8539;DHT22;4307;53.868;11.680;2023-08-17T03:55:45;17.70;99.90
8539;DHT22;4307;53.868;11.680;2023-08-17T03:58:12;17.70;99.90
8539;DHT22;4307;53.868;11.680;2023-08-17T04:00:40;17.70;99.90
8539;DHT22;4307;53.868;11.680;2023-08-17T04:03:08;17.80;99.90
8539;DHT22;4307;53.868;11.680;2023-08-17T04:05:35;17.80;99.90
8539;DHT22;4307;53.868;11.680;2023-08-17T04:08:01;17.70;99.90
8539;DHT22;4307;53.868;11.680;2023-08-17T04:10:29;17.80;99.90
8539;DHT22;4307;53.868;11.680;2023-08-17T04:12:57;17.70;99.90
8539;DHT22;4307;53.868;11.680;2023-08-17T04:15:24;17.70;99.90
8539;DHT22;4307;53.868;11.680;2023-08-17T04:17:51;17.80;99.90
8539;DHT22;4307;53.868;11.680;2023-08-17T04:20:18;17.80;99.90
8539;DHT22;4307;53.868;11.680;2023-08-17T04:22:45;17.80;99.90
8539;DHT22;4307;53.868;11.680;2023-08-17T04:25:14;17.90;99.90
8539;DHT22;4307;53.868;11.680;2023-08-17T04:27:40;17.90;99.90
8539;DHT22;4307;53.868;11.680;2023-08-17T04:30:10;17.90;99.90
8539;DHT22;4307;53.868;11.680;2023-08-17T04:32:37;17.90;99.90
8539;DHT22;4307;53.868;11.680;2023-08-17T04:35:04;17.90;99.90
8539;DHT22;4307;53.868;11.680;2023-08-17T04:37:31;17.90;99.90
8539;DHT22;4307;53.868;11.680;2023-08-17T04:39:58;17.90;99.90
8539;DHT22;4307;53.868;11.680;2023-08-17T04:42:24;17.90;99.90
8539;DHT22;4307;53.868;11.680;2023-08-17T04:44:52;17.90;99.90
8539;DHT22;4307;53.868;11.680;2023-08-17T04:47:20;17.90;99.90
8539;DHT22;4307;53.868;11.680;2023-08-17T04:49:47;17.90;99.90
8539;DHT22;4307;53.868;11.680;2023-08-17T04:52:13;17.90;99.90
8539;DHT22;4307;53.868;11.680;2023-08-17T04:54:40;17.90;99.90
8539;DHT22;4307;53.868;11.680;2023-08-17T04:57:07;17.90;99.90
8539;DHT22;4307;53.868;11.680;2023-08-17T04:59:33;17.90;99.90
8539;DHT22;4307;53.868;11.680;2023-08-17T05:02:00;17.90;99.90
8539;DHT22;4307;53.868;11.680;2023-08-17T05:04:29;17.90;99.90
8539;DHT22;4307;53.868;11.680;2023-08-17T05:06:56;17.90;99.90
8539;DHT22;4307;53.868;11.680;2023-08-17T05:09:23;17.90;99.90
8539;DHT22;4307;53.868;11.680;2023-08-17T05:11:49;17.90;99.90
8539;DHT22;4307;53.868;11.680;2023-08-17T05:14:16;18.00;99.90
8539;DHT22;4307;53.868;11.680;2023-08-17T05:16:43;18.10;99.90
8539;DHT22;4307;53.868;11.680;2023-08-17T05:19:09;18.10;99.90
8539;DHT22;4307;53.868;11.680;2023-08-17T05:21:37;18.20;99.90
8539;DHT22;4307;53.868;11.680;2023-08-17T05:24:04;18.20;99.90
8539;DHT22;4307;53.868;11.680;2023-08-17T05:26:31;18.20;99.90
8539;DHT22;4307;53.868;11.680;2023-08-17T05:28:58;18.30;99.90
8539;DHT22;4307;53.868;11.680;2023-08-17T05:31:24;18.30;99.90
8539;DHT22;4307;53.868;11.680;2023-08-17T05:33:51;18.30;99.90
8539;DHT22;4307;53.868;11.680;2023-08-17T05:36:18;18.30;99.90
8539;DHT22;4307;53.868;11.680;2023-08-17T05:38:46;18.30;99.90
8539;DHT22;4307;53.868;11.680;2023-08-17T05:41:12;18.30;99.90
8539;DHT22;4307;53.868;11.680;2023-08-17T05:43:39;18.30;99.90
8539;DHT22;4307;53.868;11.680;2023-08-17T05:46:06;18.30;99.90
8539;DHT22;4307;53.868;11.680;2023-08-17T05:48:32;18.30;99.90
8539;DHT22;4307;53.868;11.680;2023-08-17T05:50:59;18.30;99.90
8539;DHT22;4307;53.868;11.680;2023-08-17T05:53:26;18.30;99.90
8539;DHT22;4307;53.868;11.680;2023-08-17T05:55:54;18.40;99.90
8539;DHT22;4307;53.868;11.680;2023-08-17T05:58:21;18.50;99.90
8539;DHT22;4307;53.868;11.680;2023-08-17T06:00:47;18.60;99.90
8539;DHT22;4307;53.868;11.680;2023-08-17T06:03:15;18.60;99.90
8539;DHT22;4307;53.868;11.680;2023-08-17T06:05:41;18.70;99.90
8539;DHT22;4307;53.868;11.680;2023-08-17T06:08:08;18.80;99.90
8539;DHT22;4307;53.868;11.680;2023-08-17T06:10:35;18.80;99.90
8539;DHT22;4307;53.868;11.680;2023-08-17T06:13:03;18.90;99.90
8539;DHT22;4307;53.868;11.680;2023-08-17T06:15:30;19.00;99.90
8539;DHT22;4307;53.868;11.680;2023-08-17T06:17:57;19.10;99.90
8539;DHT22;4307;53.868;11.680;2023-08-17T06:20:23;19.20;99.90
8539;DHT22;4307;53.868;11.680;2023-08-17T06:22:50;19.20;99.90
8539;DHT22;4307;53.868;11.680;2023-08-17T06:25:16;19.30;99.90
8539;DHT22;4307;53.868;11.680;2023-08-17T06:27:43;19.20;99.90
8539;DHT22;4307;53.868;11.680;2023-08-17T06:30:12;19.30;99.90
8539;DHT22;4307;53.868;11.680;2023-08-17T06:32:39;19.20;99.90
8539;DHT22;4307;53.868;11.680;2023-08-17T06:35:06;19.20;99.90
8539;DHT22;4307;53.868;11.680;2023-08-17T06:37:33;19.30;99.90
8539;DHT22;4307;53.868;11.680;2023-08-17T06:40:00;19.30;99.90
8539;DHT22;4307;53.868;11.680;2023-08-17T06:42:27;19.30;99.90
8539;DHT22;4307;53.868;11.680;2023-08-17T06:44:54;19.30;99.90
8539;DHT22;4307;53.868;11.680;2023-08-17T06:47:22;19.40;99.90
8539;DHT22;4307;53.868;11.680;2023-08-17T06:49:49;19.40;99.90
8539;DHT22;4307;53.868;11.680;2023-08-17T06:52:16;19.40;99.90
8539;DHT22;4307;53.868;11.680;2023-08-17T06:54:42;19.30;99.90
8539;DHT22;4307;53.868;11.680;2023-08-17T06:57:09;19.30;99.90
8539;DHT22;4307;53.868;11.680;2023-08-17T06:59:35;19.20;99.90
8539;DHT22;4307;53.868;11.680;2023-08-17T07:02:02;19.20;99.90
8539;DHT22;4307;53.868;11.680;2023-08-17T07:04:30;19.20;99.90
8539;DHT22;4307;53.868;11.680;2023-08-17T07:06:57;19.20;99.90
8539;DHT22;4307;53.868;11.680;2023-08-17T07:09:24;19.30;99.90
8539;DHT22;4307;53.868;11.680;2023-08-17T07:11:52;19.30;99.90
8539;DHT22;4307;53.868;11.680;2023-08-17T07:14:18;19.40;99.90
8539;DHT22;4307;53.868;11.680;2023-08-17T07:16:45;19.50;99.90
8539;DHT22;4307;53.868;11.680;2023-08-17T07:19:12;19.40;99.90
8539;DHT22;4307;53.868;11.680;2023-08-17T07:21:40;19.50;99.90
8539;DHT22;4307;53.868;11.680;2023-08-17T07:24:14;19.50;99.90
8539;DHT22;4307;53.868;11.680;2023-08-17T07:26:42;19.50;99.90
8539;DHT22;4307;53.868;11.680;2023-08-17T07:29:09;19.50;99.90
8539;DHT22;4307;53.868;11.680;2023-08-17T07:31:36;19.60;99.90
8539;DHT22;4307;53.868;11.680;2023-08-17T07:34:04;19.60;99.90
8539;DHT22;4307;53.868;11.680;2023-08-17T07:36:31;19.70;99.90
8539;DHT22;4307;53.868;11.680;2023-08-17T07:38:59;19.70;99.90
8539;DHT22;4307;53.868;11.680;2023-08-17T07:41:26;19.70;99.90
8539;DHT22;4307;53.868;11.680;2023-08-17T07:43:53;19.70;99.90
8539;DHT22;4307;53.868;11.680;2023-08-17T07:46:20;19.70;99.90
8539;DHT22;4307;53.868;11.680;2023-08-17T07:48:46;19.70;99.90
8539;DHT22;4307;53.868;11.680;2023-08-17T07:51:13;19.70;99.90
8539;DHT22;4307;53.868;11.680;2023-08-17T07:53:40;19.70;99.90
8539;DHT22;4307;53.868;11.680;2023-08-17T07:56:08;19.70;99.90
8539;DHT22;4307;53.868;11.680;2023-08-17T07:58:34;19.70;99.90
8539;DHT22;4307;53.868;11.680;2023-08-17T08:01:01;19.70;99.90
8539;DHT22;4307;53.868;11.680;2023-08-17T08:03:28;19.70;99.90
8539;DHT22;4307;53.868;11.680;2023-08-17T08:05:54;19.80;99.90
8539;DHT22;4307;53.868;11.680;2023-08-17T08:08:21;19.80;99.90
8539;DHT22;4307;53.868;11.680;2023-08-17T08:10:47;19.80;99.90
8539;DHT22;4307;53.868;11.680;2023-08-17T08:13:16;19.80;99.90
8539;DHT22;4307;53.868;11.680;2023-08-17T08:15:42;19.80;99.90
8539;DHT22;4307;53.868;11.680;2023-08-17T08:18:09;19.70;99.90
8539;DHT22;4307;53.868;11.680;2023-08-17T08:20:35;19.70;99.90
8539;DHT22;4307;53.868;11.680;2023-08-17T08:23:02;19.70;99.90
8539;DHT22;4307;53.868;11.680;2023-08-17T08:25:29;19.70;99.90
8539;DHT22;4307;53.868;11.680;2023-08-17T08:27:56;19.70;99.90
8539;DHT22;4307;53.868;11.680;2023-08-17T08:30:24;19.70;99.90
8539;DHT22;4307;53.868;11.680;2023-08-17T08:32:51;19.80;99.90
8539;DHT22;4307;53.868;11.680;2023-08-17T08:35:18;19.70;99.90
8539;DHT22;4307;53.868;11.680;2023-08-17T08:37:45;19.80;99.90
8539;DHT22;4307;53.868;11.680;2023-08-17T08:40:12;19.80;99.90
8539;DHT22;4307;53.868;11.680;2023-08-17T08:42:39;19.80;99.90
8539;DHT22;4307;53.868;11.680;2023-08-17T08:45:06;19.80;99.90
8539;DHT22;4307;53.868;11.680;2023-08-17T08:47:36;19.80;99.90
8539;DHT22;4307;53.868;11.680;2023-08-17T08:50:04;19.80;99.90
8539;DHT22;4307;53.868;11.680;2023-08-17T08:52:34;19.90;99.90
8539;DHT22;4307;53.868;11.680;2023-08-17T08:55:09;19.80;99.90
8539;DHT22;4307;53.868;11.680;2023-08-17T08:57:37;19.80;99.90
8539;DHT22;4307;53.868;11.680;2023-08-17T09:00:06;19.80;99.90
8539;DHT22;4307;53.868;11.680;2023-08-17T09:02:35;19.80;99.90
8539;DHT22;4307;53.868;11.680;2023-08-17T09:05:02;19.80;99.90
8539;DHT22;4307;53.868;11.680;2023-08-17T09:07:29;19.70;99.90
8539;DHT22;4307;53.868;11.680;2023-08-17T09:09:57;19.70;99.90
8539;DHT22;4307;53.868;11.680;2023-08-17T09:12:25;19.70;99.90
8539;DHT22;4307;53.868;11.680;2023-08-17T09:14:52;19.70;99.90
8539;DHT22;4307;53.868;11.680;2023-08-17T09:17:23;19.60;99.90
8539;DHT22;4307;53.868;11.680;2023-08-17T09:19:51;19.60;99.90
8539;DHT22;4307;53.868;11.680;2023-08-17T09:22:23;19.60;99.90
8539;DHT22;4307;53.868;11.680;2023-08-17T09:24:50;19.60;99.90
8539;DHT22;4307;53.868;11.680;2023-08-17T09:27:17;19.60;99.90
8539;DHT22;4307;53.868;11.680;2023-08-17T09:29:44;19.60;99.90
8539;DHT22;4307;53.868;11.680;2023-08-17T09:32:14;19.50;99.90
8539;DHT22;4307;53.868;11.680;2023-08-17T09:34:41;19.50;99.90
8539;DHT22;4307;53.868;11.680;2023-08-17T09:37:11;19.50;99.90
8539;DHT22;4307;53.868;11.680;2023-08-17T09:39:38;19.40;99.90
8539;DHT22;4307;53.868;11.680;2023-08-17T09:42:05;19.40;99.90
8539;DHT22;4307;53.868;11.680;2023-08-17T09:44:33;19.40;99.90
8539;DHT22;4307;53.868;11.680;2023-08-17T09:47:01;19.30;99.90
8539;DHT22;4307;53.868;11.680;2023-08-17T09:49:31;19.30;99.90
8539;DHT22;4307;53.868;11.680;2023-08-17T09:51:59;19.30;99.90
8539;DHT22;4307;53.868;11.680;2023-08-17T09:54:31;19.30;99.90
8539;DHT22;4307;53.868;11.680;2023-08-17T09:56:58;19.30;99.90
8539;DHT22;4307;53.868;11.680;2023-08-17T09:59:26;19.20;99.90
8539;DHT22;4307;53.868;11.680;2023-08-17T10:01:54;19.20;99.90
8539;DHT22;4307;53.868;11.680;2023-08-17T10:04:23;19.20;99.90
8539;DHT22;4307;53.868;11.680;2023-08-17T10:06:55;19.20;99.90
8539;DHT22;4307;53.868;11.680;2023-08-17T10:09:25;19.20;99.90
8539;DHT22;4307;53.868;11.680;2023-08-17T10:12:10;19.20;99.90
8539;DHT22;4307;53.868;11.680;2023-08-17T10:14:49;19.20;99.90
8539;DHT22;4307;53.868;11.680;2023-08-17T10:17:25;19.20;99.90
8539;DHT22;4307;53.868;11.680;2023-08-17T10:19:55;19.20;99.90
8539;DHT22;4307;53.868;11.680;2023-08-17T10:22:28;19.20;99.90
8539;DHT22;4307;53.868;11.680;2023-08-17T10:24:57;19.20;99.90
8539;DHT22;4307;53.868;11.680;2023-08-17T10:27:26;19.30;99.90
8539;DHT22;4307;53.868;11.680;2023-08-17T10:29:53;19.30;99.90
8539;DHT22;4307;53.868;11.680;2023-08-17T10:32:22;19.30;99.90
8539;DHT22;4307;53.868;11.680;2023-08-17T10:34:51;19.30;99.90
8539;DHT22;4307;53.868;11.680;2023-08-17T10:37:19;19.30;99.90
8539;DHT22;4307;53.868;11.680;2023-08-17T10:39:48;19.30;99.90
8539;DHT22;4307;53.868;11.680;2023-08-17T10:42:15;19.30;99.90
8539;DHT22;4307;53.868;11.680;2023-08-17T10:44:58;19.40;99.90
8539;DHT22;4307;53.868;11.680;2023-08-17T10:47:28;19.40;99.90
8539;DHT22;4307;53.868;11.680;2023-08-17T10:49:57;19.40;99.90
8539;DHT22;4307;53.868;11.680;2023-08-17T10:52:27;19.40;99.90
8539;DHT22;4307;53.868;11.680;2023-08-17T10:54:55;19.50;99.90
8539;DHT22;4307;53.868;11.680;2023-08-17T10:57:28;19.60;99.90
8539;DHT22;4307;53.868;11.680;2023-08-17T11:00:17;19.60;99.90
8539;DHT22;4307;53.868;11.680;2023-08-17T11:02:57;19.60;99.90
8539;DHT22;4307;53.868;11.680;2023-08-17T11:08:27;19.70;99.90
8539;DHT22;4307;53.868;11.680;2023-08-17T11:11:02;19.70;99.90
8539;DHT22;4307;53.868;11.680;2023-08-17T11:13:29;19.70;99.90
8539;DHT22;4307;53.868;11.680;2023-08-17T11:15:58;19.70;99.90
8539;DHT22;4307;53.868;11.680;2023-08-17T11:18:25;19.80;99.90
8539;DHT22;4307;53.868;11.680;2023-08-17T11:20:53;19.80;99.90
8539;DHT22;4307;53.868;11.680;2023-08-17T11:23:23;19.80;99.90
8539;DHT22;4307;53.868;11.680;2023-08-17T11:25:59;19.90;99.90
8539;DHT22;4307;53.868;11.680;2023-08-17T11:28:41;19.90;99.90
8539;DHT22;4307;53.868;11.680;2023-08-17T11:31:20;20.00;99.90
8539;DHT22;4307;53.868;11.680;2023-08-17T11:33:59;20.00;99.90
8539;DHT22;4307;53.868;11.680;2023-08-17T11:36:27;20.00;99.90
8539;DHT22;4307;53.868;11.680;2023-08-17T11:39:08;20.10;99.90
8539;DHT22;4307;53.868;11.680;2023-08-17T11:41:37;20.20;99.90
8539;DHT22;4307;53.868;11.680;2023-08-17T11:44:07;20.20;99.90
8539;DHT22;4307;53.868;11.680;2023-08-17T11:46:47;20.30;99.90
8539;DHT22;4307;53.868;11.680;2023-08-17T11:49:17;20.30;99.90
8539;DHT22;4307;53.868;11.680;2023-08-17T11:51:44;20.40;99.90
8539;DHT22;4307;53.868;11.680;2023-08-17T11:54:11;20.40;99.90
8539;DHT22;4307;53.868;11.680;2023-08-17T11:56:38;20.40;99.90
8539;DHT22;4307;53.868;11.680;2023-08-17T11:59:09;20.40;99.90
8539;DHT22;4307;53.868;11.680;2023-08-17T12:01:39;20.40;99.90
8539;DHT22;4307;53.868;11.680;2023-08-17T12:04:07;20.40;99.90
8539;DHT22;4307;53.868;11.680;2023-08-17T12:06:35;20.40;99.90
8539;DHT22;4307;53.868;11.680;2023-08-17T12:09:04;20.40;99.90
8539;DHT22;4307;53.868;11.680;2023-08-17T12:11:31;20.40;99.90
8539;DHT22;4307;53.868;11.680;2023-08-17T12:13:59;20.40;99.90
8539;DHT22;4307;53.868;11.680;2023-08-17T12:16:26;20.40;99.90
8539;DHT22;4307;53.868;11.680;2023-08-17T12:18:52;20.40;99.90
8539;DHT22;4307;53.868;11.680;2023-08-17T12:21:21;20.40;99.90
8539;DHT22;4307;53.868;11.680;2023-08-17T12:23:48;20.40;99.90
8539;DHT22;4307;53.868;11.680;2023-08-17T12:26:18;20.50;99.90
8539;DHT22;4307;53.868;11.680;2023-08-17T12:28:45;20.60;99.90
8539;DHT22;4307;53.868;11.680;2023-08-17T12:31:12;20.70;99.90
8539;DHT22;4307;53.868;11.680;2023-08-17T12:33:39;20.80;99.90
8539;DHT22;4307;53.868;11.680;2023-08-17T12:36:05;20.80;99.90
8539;DHT22;4307;53.868;11.680;2023-08-17T12:38:34;20.90;99.90
8539;DHT22;4307;53.868;11.680;2023-08-17T12:41:01;21.00;99.90
8539;DHT22;4307;53.868;11.680;2023-08-17T12:43:27;21.10;99.90
8539;DHT22;4307;53.868;11.680;2023-08-17T12:45:54;21.10;99.90
8539;DHT22;4307;53.868;11.680;2023-08-17T12:48:21;21.20;99.90
8539;DHT22;4307;53.868;11.680;2023-08-17T12:50:48;21.40;99.90
8539;DHT22;4307;53.868;11.680;2023-08-17T12:53:14;21.40;99.90
8539;DHT22;4307;53.868;11.680;2023-08-17T12:55:42;21.50;99.90
8539;DHT22;4307;53.868;11.680;2023-08-17T12:58:09;21.60;99.90
8539;DHT22;4307;53.868;11.680;2023-08-17T13:00:36;21.60;99.90
8539;DHT22;4307;53.868;11.680;2023-08-17T13:03:03;21.60;99.90
8539;DHT22;4307;53.868;11.680;2023-08-17T13:05:29;21.70;99.90
8539;DHT22;4307;53.868;11.680;2023-08-17T13:07:56;21.80;99.90
8539;DHT22;4307;53.868;11.680;2023-08-17T13:10:23;21.80;99.90
8539;DHT22;4307;53.868;11.680;2023-08-17T13:12:51;21.80;99.90
8539;DHT22;4307;53.868;11.680;2023-08-17T13:15:20;21.80;99.90
8539;DHT22;4307;53.868;11.680;2023-08-17T13:17:46;21.80;99.90
8539;DHT22;4307;53.868;11.680;2023-08-17T13:20:13;21.80;99.90
8539;DHT22;4307;53.868;11.680;2023-08-17T13:22:40;21.80;99.90
8539;DHT22;4307;53.868;11.680;2023-08-17T13:25:07;21.80;99.90
8539;DHT22;4307;53.868;11.680;2023-08-17T13:27:34;21.80;99.90
8539;DHT22;4307;53.868;11.680;2023-08-17T13:30:02;21.80;99.90
8539;DHT22;4307;53.868;11.680;2023-08-17T13:32:29;21.80;99.90
8539;DHT22;4307;53.868;11.680;2023-08-17T13:34:55;21.80;99.90
8539;DHT22;4307;53.868;11.680;2023-08-17T13:37:22;21.80;99.90
8539;DHT22;4307;53.868;11.680;2023-08-17T13:39:49;21.70;99.90
8539;DHT22;4307;53.868;11.680;2023-08-17T13:42:15;21.70;99.90
8539;DHT22;4307;53.868;11.680;2023-08-17T13:44:42;21.70;99.90
8539;DHT22;4307;53.868;11.680;2023-08-17T13:47:10;21.70;99.90
8539;DHT22;4307;53.868;11.680;2023-08-17T13:49:37;21.70;99.90
8539;DHT22;4307;53.868;11.680;2023-08-17T13:52:04;21.60;99.90
8539;DHT22;4307;53.868;11.680;2023-08-17T13:54:31;21.60;99.90
8539;DHT22;4307;53.868;11.680;2023-08-17T13:56:57;21.60;99.90
8539;DHT22;4307;53.868;11.680;2023-08-17T13:59:24;21.60;99.90
8539;DHT22;4307;53.868;11.680;2023-08-17T14:01:51;21.60;99.90
8539;DHT22;4307;53.868;11.680;2023-08-17T14:04:19;21.50;99.90
8539;DHT22;4307;53.868;11.680;2023-08-17T14:06:46;21.50;99.90
8539;DHT22;4307;53.868;11.680;2023-08-17T14:09:12;21.50;99.90
8539;DHT22;4307;53.868;11.680;2023-08-17T14:11:39;21.40;99.90
8539;DHT22;4307;53.868;11.680;2023-08-17T14:14:06;21.40;99.90
8539;DHT22;4307;53.868;11.680;2023-08-17T14:16:32;21.40;99.90
8539;DHT22;4307;53.868;11.680;2023-08-17T14:18:59;21.30;99.90
8539;DHT22;4307;53.868;11.680;2023-08-17T14:21:27;21.20;99.90
8539;DHT22;4307;53.868;11.680;2023-08-17T14:23:54;21.20;99.90
8539;DHT22;4307;53.868;11.680;2023-08-17T14:26:21;21.20;99.90
8539;DHT22;4307;53.868;11.680;2023-08-17T14:28:47;21.20;99.90
8539;DHT22;4307;53.868;11.680;2023-08-17T14:31:14;21.10;99.90
8539;DHT22;4307;53.868;11.680;2023-08-17T14:33:44;21.10;99.90
8539;DHT22;4307;53.868;11.680;2023-08-17T14:36:13;21.10;99.90
8539;DHT22;4307;53.868;11.680;2023-08-17T14:38:42;21.00;99.90
8539;DHT22;4307;53.868;11.680;2023-08-17T14:41:08;21.00;99.90
8539;DHT22;4307;53.868;11.680;2023-08-17T14:43:35;21.00;99.90
8539;DHT22;4307;53.868;11.680;2023-08-17T14:46:02;21.10;99.90
8539;DHT22;4307;53.868;11.680;2023-08-17T14:48:29;21.00;99.90
8539;DHT22;4307;53.868;11.680;2023-08-17T14:50:56;21.00;99.90
8539;DHT22;4307;53.868;11.680;2023-08-17T14:53:23;21.00;99.90
8539;DHT22;4307;53.868;11.680;2023-08-17T14:55:51;21.00;99.90
8539;DHT22;4307;53.868;11.680;2023-08-17T14:58:18;21.00;99.90
8539;DHT22;4307;53.868;11.680;2023-08-17T15:00:44;21.00;99.90
8539;DHT22;4307;53.868;11.680;2023-08-17T15:03:11;21.00;99.90
8539;DHT22;4307;53.868;11.680;2023-08-17T15:05:38;21.00;99.90
8539;DHT22;4307;53.868;11.680;2023-08-17T15:08:05;21.00;99.90
8539;DHT22;4307;53.868;11.680;2023-08-17T15:10:32;21.00;99.90
8539;DHT22;4307;53.868;11.680;2023-08-17T15:13:02;21.00;99.90
8539;DHT22;4307;53.868;11.680;2023-08-17T15:15:28;20.90;99.90
8539;DHT22;4307;53.868;11.680;2023-08-17T15:17:55;20.90;99.90
8539;DHT22;4307;53.868;11.680;2023-08-17T15:20:22;20.90;99.90
8539;DHT22;4307;53.868;11.680;2023-08-17T15:22:48;20.80;99.90
8539;DHT22;4307;53.868;11.680;2023-08-17T15:25:15;20.80;99.90
8539;DHT22;4307;53.868;11.680;2023-08-17T15:27:42;20.80;99.90
8539;DHT22;4307;53.868;11.680;2023-08-17T15:30:11;20.80;99.90
8539;DHT22;4307;53.868;11.680;2023-08-17T15:32:37;20.70;99.90
8539;DHT22;4307;53.868;11.680;2023-08-17T15:35:05;20.70;99.90
8539;DHT22;4307;53.868;11.680;2023-08-17T15:37:32;20.70;99.90
8539;DHT22;4307;53.868;11.680;2023-08-17T15:40:00;20.70;99.90
8539;DHT22;4307;53.868;11.680;2023-08-17T15:42:26;20.70;99.90
8539;DHT22;4307;53.868;11.680;2023-08-17T15:44:53;20.70;99.90
8539;DHT22;4307;53.868;11.680;2023-08-17T15:47:21;20.60;99.90
8539;DHT22;4307;53.868;11.680;2023-08-17T15:49:47;20.60;99.90
8539;DHT22;4307;53.868;11.680;2023-08-17T15:52:14;20.50;99.90